CheckWX is a tool to help pilots better visualize weather data.  It is not intended as a substitute for an official pre-flight weather briefing.

19:55:44 UTC

GLRB METAR
Roberts International Airport
Monrovia, Liberia
Current

26 mins ago

GLRB 061930Z 20007KT 9999 BKN015 25/23 Q1011 NOSIG
Observed
Jul-6 @ 19:30 UTC
Wind
  • 200° at 7 KTS
Visibility
10,000+ meters
Flight Rules
MVFR
Cloud Levels
  • Broken at 1,500' AGL
Temperature
25°C / 77°F
Dewpoint
23°C / 73°F
Humidity
89%
Altimeter
29.85" Hg
Pressure
1010.92 hPa
Previous

56 mins ago

GLRB 061900Z 20005KT 9999 BKN015 27/23 Q1011 NOSIG
Observed
Jul-6 @ 19:00 UTC
Wind
  • 200° at 5 KTS
Visibility
10,000+ meters
Flight Rules
MVFR
Cloud Levels
  • Broken at 1,500' AGL
Temperature
27°C / 81°F
Dewpoint
23°C / 73°F
Humidity
79%
Altimeter
29.85" Hg
Pressure
1010.92 hPa
Previous

1 hour ago

GLRB 061830Z 19009KT 9999 BKN015 27/23 Q1011 NOSIG
Observed
Jul-6 @ 18:30 UTC
Wind
  • 190° at 9 KTS
Visibility
10,000+ meters
Flight Rules
MVFR
Cloud Levels
  • Broken at 1,500' AGL
Temperature
27°C / 81°F
Dewpoint
23°C / 73°F
Humidity
79%
Altimeter
29.85" Hg
Pressure
1010.92 hPa